createdAt,value
2018-06-17T00:00:56.256Z,11.97
2018-06-17T00:03:23.395Z,11.60
2018-06-17T00:05:50.502Z,11.70
2018-06-17T00:08:17.733Z,12.70
2018-06-17T00:10:44.939Z,12.43
2018-06-17T00:13:12.051Z,13.50
2018-06-17T00:15:39.216Z,12.73
2018-06-17T00:18:06.345Z,13.53
2018-06-17T00:20:33.468Z,14.33
2018-06-17T00:23:00.613Z,13.70
2018-06-17T00:25:27.771Z,13.70
2018-06-17T00:27:54.924Z,13.53
2018-06-17T00:30:22.193Z,14.57
2018-06-17T00:32:49.485Z,14.37
2018-06-17T00:35:16.622Z,14.47
2018-06-17T00:37:43.796Z,13.73
2018-06-17T00:40:10.923Z,15.13
2018-06-17T00:42:38.060Z,14.00
2018-06-17T00:45:05.239Z,14.43
2018-06-17T00:47:32.363Z,14.70
2018-06-17T00:49:59.484Z,14.33
2018-06-17T00:52:26.726Z,14.47
2018-06-17T00:54:54.004Z,14.87
2018-06-17T00:57:32.751Z,14.53
2018-06-17T00:59:59.895Z,15.37
2018-06-17T01:02:27.148Z,15.00
2018-06-17T01:04:54.321Z,15.00
2018-06-17T01:07:21.468Z,14.27
2018-06-17T01:09:48.585Z,15.37
2018-06-17T01:12:15.839Z,16.23
2018-06-17T01:14:42.978Z,14.93
2018-06-17T01:17:10.087Z,16.23
2018-06-17T01:19:37.319Z,14.30
2018-06-17T01:22:04.423Z,15.80
2018-06-17T01:24:32.623Z,15.73
2018-06-17T01:26:59.778Z,15.60
2018-06-17T01:29:26.931Z,14.30
2018-06-17T01:31:54.063Z,16.13
2018-06-17T01:34:21.241Z,15.23
2018-06-17T01:36:48.359Z,16.20
2018-06-17T01:39:15.516Z,16.83
2018-06-17T01:41:42.678Z,17.37
2018-06-17T01:44:09.806Z,17.03
2018-06-17T01:46:36.916Z,17.17
2018-06-17T01:49:04.129Z,17.43
2018-06-17T01:51:31.256Z,16.80
2018-06-17T01:53:58.393Z,17.77
2018-06-17T01:56:25.576Z,16.90
2018-06-17T01:58:52.683Z,16.60
2018-06-17T02:01:19.864Z,16.67
2018-06-17T02:03:52.824Z,17.13
2018-06-17T02:06:25.730Z,17.67
2018-06-17T02:08:58.572Z,17.67
2018-06-17T02:12:31.030Z,17.10
2018-06-17T02:14:58.875Z,17.83
2018-06-17T02:17:26.776Z,17.33
2018-06-17T02:19:54.545Z,17.53
2018-06-17T02:22:21.790Z,17.87
2018-06-17T02:24:49.031Z,17.20
2018-06-17T02:27:16.209Z,17.30
2018-06-17T02:29:43.503Z,17.17
2018-06-17T02:32:10.708Z,17.83
2018-06-17T02:34:38.044Z,18.10
2018-06-17T02:37:05.636Z,18.63
2018-06-17T02:39:32.800Z,17.87
2018-06-17T02:41:59.925Z,17.17
2018-06-17T02:44:27.103Z,17.27
2018-06-17T02:47:00.015Z,17.67
2018-06-17T02:49:33.025Z,17.17
2018-06-17T02:52:06.020Z,18.57
2018-06-17T02:54:38.894Z,17.07
2018-06-17T02:57:06.580Z,17.37
2018-06-17T02:59:33.660Z,18.03
2018-06-17T03:02:01.245Z,17.80
2018-06-17T03:04:28.379Z,17.57
2018-06-17T03:06:55.520Z,19.57
2018-06-17T03:09:22.853Z,16.93
2018-06-17T03:11:50.020Z,18.17
2018-06-17T03:14:17.244Z,18.27
2018-06-17T03:16:44.450Z,18.43
2018-06-17T03:19:11.632Z,18.77
2018-06-17T03:21:38.772Z,18.47
2018-06-17T03:24:05.965Z,18.23
2018-06-17T03:26:38.675Z,18.17
2018-06-17T03:29:11.500Z,19.40
2018-06-17T03:31:44.287Z,17.80
2018-06-17T03:34:11.459Z,19.13
2018-06-17T03:36:38.565Z,19.47
2018-06-17T03:39:06.394Z,19.27
2018-06-17T03:41:33.587Z,20.60
2018-06-17T03:44:00.735Z,19.87
2018-06-17T03:46:27.864Z,19.73
2018-06-17T03:48:55.107Z,18.57
2018-06-17T03:51:22.202Z,19.70
2018-06-17T03:53:49.358Z,18.87
2018-06-17T03:56:16.523Z,19.23
2018-06-17T03:58:43.632Z,20.17
2018-06-17T04:01:10.769Z,19.27
2018-06-17T04:03:37.919Z,20.07
2018-06-17T04:06:05.023Z,20.30
2018-06-17T04:08:32.127Z,20.73
2018-06-17T04:10:59.287Z,21.13
2018-06-17T04:13:26.506Z,20.10
2018-06-17T04:15:53.681Z,20.10
2018-06-17T04:18:20.908Z,21.07
2018-06-17T04:20:48.036Z,20.67
2018-06-17T04:23:15.108Z,21.53
2018-06-17T04:25:42.280Z,20.70
2018-06-17T04:28:09.397Z,20.60
2018-06-17T04:30:36.497Z,20.53
2018-06-17T04:33:03.647Z,21.13
2018-06-17T04:35:30.753Z,21.80
2018-06-17T04:37:57.855Z,20.40
2018-06-17T04:40:25.048Z,20.37
2018-06-17T04:42:52.163Z,21.97
2018-06-17T04:45:19.350Z,20.13
2018-06-17T04:47:46.541Z,21.37
2018-06-17T04:50:13.684Z,20.30
2018-06-17T04:52:40.780Z,20.03
2018-06-17T04:55:07.958Z,20.93
2018-06-17T04:57:35.098Z,19.77
2018-06-17T05:00:02.230Z,21.17
2018-06-17T05:02:29.435Z,19.90
2018-06-17T05:04:56.547Z,21.27
2018-06-17T05:07:23.666Z,20.73
2018-06-17T05:09:50.830Z,20.87
2018-06-17T05:12:17.958Z,21.40
2018-06-17T05:14:45.071Z,21.97
2018-06-17T05:17:12.216Z,22.43
2018-06-17T05:19:39.415Z,22.53
2018-06-17T05:22:06.794Z,19.93
2018-06-17T05:24:33.949Z,19.67
2018-06-17T05:27:01.081Z,19.90
2018-06-17T05:29:28.352Z,19.50
2018-06-17T05:31:56.009Z,19.47
2018-06-17T05:34:23.113Z,19.00
2018-06-17T05:36:50.289Z,18.50
2018-06-17T05:39:17.467Z,18.47
2018-06-17T05:41:44.881Z,19.07
2018-06-17T05:44:12.023Z,18.83
2018-06-17T05:46:39.188Z,17.77
2018-06-17T05:49:06.616Z,17.50
2018-06-17T05:51:34.307Z,16.70
2018-06-17T05:54:01.525Z,16.00
2018-06-17T05:56:28.743Z,16.00
2018-06-17T05:58:55.911Z,15.37
2018-06-17T06:01:23.096Z,15.10
2018-06-17T06:03:50.271Z,14.90
2018-06-17T06:06:17.387Z,13.67
2018-06-17T06:08:44.535Z,13.30
2018-06-17T06:11:11.739Z,13.37
2018-06-17T06:13:38.867Z,13.80
2018-06-17T06:16:06.126Z,12.20
2018-06-17T06:18:33.367Z,13.13
2018-06-17T06:21:00.584Z,12.80
2018-06-17T06:23:27.749Z,12.53
2018-06-17T06:25:54.945Z,12.53
2018-06-17T06:28:22.054Z,12.30
2018-06-17T06:30:49.191Z,12.77
2018-06-17T06:33:16.320Z,12.67
2018-06-17T06:35:45.888Z,12.33
2018-06-17T06:38:13.052Z,12.77
2018-06-17T06:40:40.309Z,12.20
2018-06-17T06:43:07.642Z,11.03
2018-06-17T06:45:34.860Z,11.50
2018-06-17T06:48:02.026Z,10.50
2018-06-17T06:50:29.219Z,10.93
2018-06-17T06:52:57.265Z,10.43
2018-06-17T06:55:24.429Z,9.97
2018-06-17T06:57:51.656Z,9.43
2018-06-17T07:00:19.068Z,9.80
2018-06-17T07:02:57.568Z,8.40
2018-06-17T07:05:36.691Z,8.90
2018-06-17T07:08:15.219Z,9.17
2018-06-17T07:10:42.438Z,8.27
2018-06-17T07:13:09.552Z,8.73
2018-06-17T07:15:49.317Z,8.17
2018-06-17T07:18:28.920Z,8.57
2018-06-17T07:20:56.782Z,8.33
2018-06-17T07:23:24.002Z,8.17
2018-06-17T07:26:30.267Z,8.33
2018-06-17T07:29:08.835Z,8.63
2018-06-17T07:31:36.527Z,7.73
2018-06-17T07:34:03.847Z,7.67
2018-06-17T07:36:30.980Z,8.07
2018-06-17T07:38:58.610Z,7.73
2018-06-17T07:41:26.871Z,7.70
2018-06-17T07:43:54.264Z,8.17
2018-06-17T07:46:21.703Z,7.67
2018-06-17T07:49:25.602Z,7.53
2018-06-17T07:52:05.435Z,7.33
2018-06-17T07:54:32.797Z,7.83
2018-06-17T07:57:01.060Z,7.53
2018-06-17T07:59:28.376Z,7.33
2018-06-17T08:01:55.850Z,7.20
2018-06-17T08:04:23.023Z,8.30
2018-06-17T08:06:50.523Z,8.20
2018-06-17T08:09:17.729Z,7.20
2018-06-17T08:11:45.888Z,7.83
2018-06-17T08:14:13.054Z,8.17
2018-06-17T08:16:40.176Z,7.87
2018-06-17T08:19:07.365Z,8.23
2018-06-17T08:21:34.623Z,8.07
2018-06-17T08:24:01.906Z,7.90
2018-06-17T08:26:29.219Z,8.00
2018-06-17T08:28:56.947Z,7.97
2018-06-17T08:31:24.516Z,7.10
2018-06-17T08:33:51.790Z,7.30
2018-06-17T08:36:19.054Z,7.30
2018-06-17T08:38:46.180Z,7.00
2018-06-17T08:41:13.331Z,6.40
2018-06-17T08:43:40.647Z,6.80
2018-06-17T08:46:07.885Z,6.80
2018-06-17T08:48:35.031Z,6.40
2018-06-17T08:51:02.375Z,6.23
2018-06-17T08:53:29.671Z,5.83
2018-06-17T08:55:57.048Z,6.47
2018-06-17T08:58:24.312Z,6.00
2018-06-17T09:00:51.450Z,6.10
2018-06-17T09:03:18.637Z,6.40
2018-06-17T09:05:46.140Z,6.57
2018-06-17T09:08:13.349Z,5.73
2018-06-17T09:10:40.548Z,5.53
2018-06-17T09:13:07.741Z,5.53
2018-06-17T09:15:34.970Z,5.00
2018-06-17T09:18:02.189Z,5.40
2018-06-17T09:20:29.498Z,5.40
2018-06-17T09:22:56.976Z,5.10
2018-06-17T09:25:24.134Z,5.60
2018-06-17T09:27:51.332Z,5.27
2018-06-17T09:30:18.479Z,4.97
2018-06-17T09:32:45.689Z,5.43
2018-06-17T09:35:12.965Z,4.67
2018-06-17T09:37:40.067Z,4.90
2018-06-17T09:40:07.218Z,4.37
2018-06-17T09:42:35.205Z,4.63
2018-06-17T09:45:02.520Z,4.30
2018-06-17T09:47:29.822Z,5.13
2018-06-17T09:49:57.396Z,4.53
2018-06-17T09:52:24.652Z,4.50
2018-06-17T09:54:51.765Z,4.60
2018-06-17T09:57:18.937Z,4.63
2018-06-17T09:59:46.148Z,4.53
2018-06-17T10:02:13.302Z,4.40
2018-06-17T10:04:40.659Z,4.13
2018-06-17T10:07:07.897Z,4.33
2018-06-17T10:09:46.619Z,4.60
2018-06-17T10:12:13.864Z,4.37
2018-06-17T10:14:40.988Z,4.77
2018-06-17T10:17:08.180Z,4.30
2018-06-17T10:19:35.351Z,4.07
2018-06-17T10:22:02.725Z,3.73
2018-06-17T10:24:30.083Z,3.43
2018-06-17T10:26:57.392Z,3.90
2018-06-17T10:29:24.572Z,3.83
2018-06-17T10:31:51.770Z,3.83
2018-06-17T10:34:18.928Z,4.20
2018-06-17T10:36:46.063Z,3.90
2018-06-17T10:39:13.219Z,3.63
2018-06-17T10:41:40.371Z,3.40
2018-06-17T10:44:07.529Z,3.40
2018-06-17T10:46:34.696Z,3.27
2018-06-17T10:49:01.900Z,3.40
2018-06-17T10:51:29.092Z,3.60
2018-06-17T10:53:56.387Z,3.70
2018-06-17T10:56:23.527Z,3.10
2018-06-17T10:58:50.757Z,3.37
2018-06-17T11:01:17.969Z,3.30
2018-06-17T11:03:45.056Z,3.40
2018-06-17T11:06:12.300Z,3.53
2018-06-17T11:08:39.444Z,3.63
2018-06-17T11:11:06.644Z,3.80
2018-06-17T11:13:34.039Z,3.50
2018-06-17T11:16:01.309Z,3.77
2018-06-17T11:18:28.671Z,3.60
2018-06-17T11:20:55.959Z,4.17
2018-06-17T11:23:23.151Z,3.20
2018-06-17T11:25:50.269Z,3.50
2018-06-17T11:28:18.395Z,3.50
2018-06-17T11:30:45.559Z,3.50
2018-06-17T11:33:12.674Z,4.07
2018-06-17T11:35:39.793Z,3.73
2018-06-17T11:38:06.971Z,3.90
2018-06-17T11:40:34.220Z,3.47
2018-06-17T11:43:01.488Z,3.53
2018-06-17T11:45:28.981Z,3.30
2018-06-17T11:47:56.320Z,3.50
2018-06-17T11:50:23.471Z,3.95
2018-06-17T11:52:50.687Z,3.50
2018-06-17T11:55:17.817Z,3.70
2018-06-17T11:57:44.939Z,3.37
2018-06-17T12:00:12.086Z,3.33
2018-06-17T12:02:39.221Z,3.85
2018-06-17T12:05:06.357Z,4.20
2018-06-17T12:07:33.631Z,4.10
2018-06-17T12:10:00.931Z,4.05
2018-06-17T12:12:28.365Z,3.40
2018-06-17T12:14:55.580Z,4.22
2018-06-17T12:17:22.728Z,4.65
2018-06-17T12:19:50.706Z,4.10
2018-06-17T12:22:17.868Z,4.50
2018-06-17T12:24:45.069Z,4.63
2018-06-17T12:27:12.267Z,4.60
2018-06-17T12:29:39.439Z,5.23
2018-06-17T12:32:06.571Z,5.07
2018-06-17T12:34:34.049Z,4.90
2018-06-17T12:37:01.339Z,4.80
2018-06-17T12:39:28.752Z,4.97
2018-06-17T12:41:56.121Z,4.40
2018-06-17T12:44:23.355Z,4.97
2018-06-17T12:46:50.464Z,4.97
2018-06-17T12:49:17.578Z,4.50
2018-06-17T12:51:44.752Z,4.70
2018-06-17T12:54:11.899Z,4.67
2018-06-17T12:56:39.029Z,4.53
2018-06-17T12:59:06.265Z,5.53
2018-06-17T13:01:33.528Z,5.30
2018-06-17T13:04:00.640Z,5.00
2018-06-17T13:06:27.868Z,5.20
2018-06-17T13:08:55.003Z,4.63
2018-06-17T13:11:22.145Z,4.67
2018-06-17T13:13:49.345Z,5.17
2018-06-17T13:16:16.589Z,5.00
2018-06-17T13:18:43.984Z,5.37
2018-06-17T13:21:11.300Z,4.60
2018-06-17T13:23:38.805Z,4.77
2018-06-17T13:26:06.181Z,5.63
2018-06-17T13:28:33.405Z,5.00
2018-06-17T13:31:00.538Z,5.47
2018-06-17T13:33:27.680Z,5.30
2018-06-17T13:35:54.874Z,5.10
2018-06-17T13:38:22.023Z,5.57
2018-06-17T13:40:49.161Z,5.13
2018-06-17T13:43:16.353Z,5.97
2018-06-17T13:45:43.682Z,5.10
2018-06-17T13:48:10.975Z,5.37
2018-06-17T13:50:38.527Z,4.73
2018-06-17T13:53:06.047Z,5.10
2018-06-17T13:55:33.155Z,5.40
2018-06-17T13:58:00.333Z,4.80
2018-06-17T14:00:27.701Z,5.80
2018-06-17T14:02:54.885Z,5.27
2018-06-17T14:05:22.068Z,5.20
2018-06-17T14:07:49.215Z,4.77
2018-06-17T14:10:16.354Z,4.90
2018-06-17T14:12:43.557Z,5.33
2018-06-17T14:15:11.709Z,5.27
2018-06-17T14:17:38.933Z,5.53
2018-06-17T14:20:07.118Z,5.47
2018-06-17T14:22:34.435Z,5.10
2018-06-17T14:25:01.803Z,5.10
2018-06-17T14:27:30.192Z,5.00
2018-06-17T14:29:57.387Z,5.20
2018-06-17T14:32:24.539Z,5.07
2018-06-17T14:34:51.724Z,6.30
2018-06-17T14:37:18.881Z,11.33
2018-06-17T14:39:46.062Z,6.10
2018-06-17T14:42:18.875Z,19.57
2018-06-17T14:44:51.719Z,7.77
2018-06-17T14:47:24.881Z,4.60
2018-06-17T14:49:57.837Z,4.90
2018-06-17T14:52:30.401Z,4.80
2018-06-17T14:54:57.563Z,4.57
2018-06-17T14:57:24.928Z,3.50
2018-06-17T14:59:52.131Z,3.80
2018-06-17T15:02:19.315Z,3.73
2018-06-17T15:04:46.740Z,3.07
2018-06-17T15:07:14.165Z,3.13
2018-06-17T15:09:41.561Z,3.20
2018-06-17T15:12:08.991Z,3.07
2018-06-17T15:14:36.561Z,2.90
2018-06-17T15:17:03.836Z,2.90
2018-06-17T15:19:31.101Z,3.03
2018-06-17T15:21:58.352Z,3.03
2018-06-17T15:24:25.517Z,2.50
2018-06-17T15:26:52.787Z,2.40
2018-06-17T15:29:20.105Z,2.50
2018-06-17T15:31:52.849Z,2.77
2018-06-17T15:34:25.840Z,2.40
2018-06-17T15:38:00.249Z,2.10
2018-06-17T15:40:33.334Z,2.17
2018-06-17T15:43:00.471Z,2.40
2018-06-17T15:45:27.792Z,2.77
2018-06-17T15:47:55.429Z,2.10
2018-06-17T15:50:23.039Z,2.40
2018-06-17T15:52:50.765Z,2.33
2018-06-17T15:55:18.337Z,2.10
2018-06-17T15:57:45.605Z,2.07
2018-06-17T16:00:12.796Z,1.90
2018-06-17T16:02:40.006Z,2.10
2018-06-17T16:05:07.169Z,2.10
2018-06-17T16:07:34.617Z,2.20
2018-06-17T16:10:02.243Z,2.20
2018-06-17T16:12:34.995Z,2.13
2018-06-17T16:15:07.712Z,2.03
2018-06-17T16:17:40.544Z,2.10
2018-06-17T16:20:13.386Z,1.90
2018-06-17T16:22:40.578Z,1.73
2018-06-17T16:25:07.885Z,2.10
2018-06-17T16:27:35.060Z,1.80
2018-06-17T16:30:02.540Z,1.80
2018-06-17T16:32:30.024Z,1.70
2018-06-17T16:34:57.658Z,1.60
2018-06-17T16:37:25.103Z,1.40
2018-06-17T16:39:52.547Z,1.70
2018-06-17T16:42:19.791Z,1.87
2018-06-17T16:44:47.935Z,2.40
2018-06-17T16:47:15.175Z,1.80
2018-06-17T16:49:42.408Z,1.80
2018-06-17T16:52:15.364Z,1.40
2018-06-17T16:54:48.488Z,1.33
2018-06-17T16:57:21.332Z,1.67
2018-06-17T16:59:51.316Z,1.50
2018-06-17T17:02:18.752Z,1.30
2018-06-17T17:04:46.544Z,1.40
2018-06-17T17:07:13.874Z,1.30
2018-06-17T17:09:42.491Z,1.40
2018-06-17T17:12:10.610Z,1.40
2018-06-17T17:14:38.275Z,1.10
2018-06-17T17:17:05.699Z,1.50
2018-06-17T17:19:34.315Z,1.30
2018-06-17T17:22:01.666Z,1.13
2018-06-17T17:24:29.180Z,1.40
2018-06-17T17:26:56.319Z,1.40
2018-06-17T17:29:23.561Z,1.27
2018-06-17T17:31:56.344Z,1.40
2018-06-17T17:34:30.676Z,1.57
2018-06-17T17:37:04.219Z,1.50
2018-06-17T17:39:40.327Z,1.87
2018-06-17T17:42:07.457Z,1.40
2018-06-17T17:44:40.446Z,1.47
2018-06-17T17:47:13.242Z,1.73
2018-06-17T17:49:40.439Z,1.60
2018-06-17T17:52:07.540Z,1.90
2018-06-17T17:54:34.696Z,1.67
2018-06-17T17:57:01.973Z,1.73
2018-06-17T17:59:29.474Z,1.47
2018-06-17T18:01:56.838Z,1.60
2018-06-17T18:04:24.135Z,1.80
2018-06-17T18:06:51.585Z,1.80
2018-06-17T18:09:18.799Z,2.10
2018-06-17T18:11:45.960Z,1.40
2018-06-17T18:14:13.071Z,1.60
2018-06-17T18:16:40.256Z,1.63
2018-06-17T18:19:07.380Z,1.83
2018-06-17T18:21:35.119Z,1.90
2018-06-17T18:24:02.489Z,1.80
2018-06-17T18:26:35.424Z,1.67
2018-06-17T18:29:08.675Z,1.70
2018-06-17T18:31:42.749Z,1.73
2018-06-17T18:34:15.511Z,1.80
2018-06-17T18:36:43.413Z,1.77
2018-06-17T18:39:10.750Z,1.90
2018-06-17T18:41:37.981Z,1.90
2018-06-17T18:44:05.187Z,1.80
2018-06-17T18:46:32.389Z,1.90
2018-06-17T18:48:59.985Z,2.10
2018-06-17T18:51:27.161Z,2.00
2018-06-17T18:53:54.467Z,1.93
2018-06-17T18:56:21.645Z,2.17
2018-06-17T18:58:49.212Z,2.27
2018-06-17T19:01:17.525Z,2.00
2018-06-17T19:03:46.137Z,2.10
2018-06-17T19:06:14.447Z,1.97
2018-06-17T19:08:47.775Z,2.10
2018-06-17T19:11:20.905Z,2.30
2018-06-17T19:14:02.449Z,2.20
2018-06-17T19:17:38.876Z,2.43
2018-06-17T19:20:06.106Z,2.40
2018-06-17T19:22:33.272Z,2.40
2018-06-17T19:25:00.451Z,1.97
2018-06-17T19:27:27.625Z,2.17
2018-06-17T19:29:56.081Z,2.00
2018-06-17T19:32:24.414Z,2.40
2018-06-17T19:34:53.030Z,2.17
2018-06-17T19:37:22.642Z,2.20
2018-06-17T19:39:51.525Z,2.23
2018-06-17T19:42:20.791Z,2.17
2018-06-17T19:44:50.098Z,2.67
2018-06-17T19:47:18.795Z,2.53
2018-06-17T19:49:53.010Z,2.50
2018-06-17T19:52:27.997Z,2.70
2018-06-17T19:55:01.823Z,2.53
2018-06-17T19:57:34.982Z,2.53
2018-06-17T20:00:08.006Z,2.93
2018-06-17T20:02:35.110Z,2.60
2018-06-17T20:05:02.837Z,2.77
2018-06-17T20:07:30.536Z,2.70
2018-06-17T20:09:58.396Z,3.00
2018-06-17T20:12:27.032Z,2.70
2018-06-17T20:14:54.889Z,2.50
2018-06-17T20:17:22.864Z,2.50
2018-06-17T20:19:51.005Z,2.77
2018-06-17T20:22:19.329Z,2.53
2018-06-17T20:24:46.517Z,2.53
2018-06-17T20:27:13.688Z,2.73
2018-06-17T20:29:40.898Z,3.13
2018-06-17T20:32:13.817Z,2.90
2018-06-17T20:34:48.059Z,2.47
2018-06-17T20:37:20.886Z,2.83
2018-06-17T20:39:54.263Z,3.20
2018-06-17T20:42:26.972Z,3.40
2018-06-17T20:44:54.289Z,3.00
2018-06-17T20:47:21.511Z,2.90
2018-06-17T20:49:48.886Z,3.13
2018-06-17T20:52:16.072Z,3.00
2018-06-17T20:54:43.371Z,3.53
2018-06-17T20:57:10.859Z,3.70
2018-06-17T20:59:38.565Z,3.20
2018-06-17T21:02:06.408Z,3.20
2018-06-17T21:04:34.229Z,3.23
2018-06-17T21:07:01.395Z,3.40
2018-06-17T21:09:28.603Z,3.50
2018-06-17T21:11:55.851Z,3.50
2018-06-17T21:14:23.032Z,3.60
2018-06-17T21:16:50.199Z,3.53
2018-06-17T21:19:22.936Z,3.50
2018-06-17T21:21:57.083Z,3.90
2018-06-17T21:24:30.127Z,3.90
2018-06-17T21:27:02.917Z,4.10
2018-06-17T21:29:30.129Z,4.00
2018-06-17T21:31:57.480Z,4.00
2018-06-17T21:34:24.794Z,4.40
2018-06-17T21:36:52.306Z,4.30
2018-06-17T21:39:19.944Z,4.20
2018-06-17T21:41:47.916Z,3.53
2018-06-17T21:44:15.145Z,3.90
2018-06-17T21:46:42.311Z,4.27
2018-06-17T21:49:09.459Z,4.33
2018-06-17T21:51:36.608Z,4.20
2018-06-17T21:54:03.860Z,4.33
2018-06-17T21:56:30.982Z,4.23
2018-06-17T21:58:58.107Z,4.60
2018-06-17T22:01:25.589Z,4.33
2018-06-17T22:03:56.587Z,4.90
2018-06-17T22:06:23.964Z,4.37
2018-06-17T22:08:56.973Z,4.70
2018-06-17T22:11:29.907Z,4.77
2018-06-17T22:14:02.750Z,4.77
2018-06-17T22:18:42.683Z,4.47
2018-06-17T22:21:09.981Z,5.13
2018-06-17T22:23:37.104Z,4.70
2018-06-17T22:26:04.334Z,4.50
2018-06-17T22:28:31.491Z,4.77
2018-06-17T22:30:58.594Z,5.07
2018-06-17T22:33:26.083Z,5.43
2018-06-17T22:35:53.501Z,5.77
2018-06-17T22:38:21.041Z,5.57
2018-06-17T22:40:48.781Z,5.90
2018-06-17T22:43:16.198Z,5.57
2018-06-17T22:45:43.321Z,5.87
2018-06-17T22:48:10.436Z,5.60
2018-06-17T22:50:37.591Z,5.40
2018-06-17T22:53:16.136Z,6.00
2018-06-17T22:55:43.318Z,5.80
2018-06-17T22:58:16.219Z,5.63
2018-06-17T23:00:49.330Z,6.10
2018-06-17T23:03:22.214Z,5.80
2018-06-17T23:05:55.141Z,6.17
2018-06-17T23:08:28.095Z,6.00
2018-06-17T23:10:55.423Z,5.80
2018-06-17T23:13:22.857Z,6.17
2018-06-17T23:15:50.470Z,5.70
2018-06-17T23:18:18.802Z,5.87
2018-06-17T23:20:46.011Z,5.87
2018-06-17T23:23:13.228Z,5.90
2018-06-17T23:25:40.387Z,6.40
2018-06-17T23:28:07.646Z,6.43
2018-06-17T23:30:34.842Z,6.43
2018-06-17T23:33:02.016Z,6.93
2018-06-17T23:35:29.304Z,7.30
2018-06-17T23:37:56.636Z,6.53
2018-06-17T23:40:23.974Z,6.83
2018-06-17T23:42:51.913Z,5.97
2018-06-17T23:45:19.593Z,6.70
2018-06-17T23:47:53.437Z,5.90
2018-06-17T23:50:26.678Z,6.60
2018-06-17T23:52:59.827Z,6.60
2018-06-17T23:55:32.691Z,6.90
2018-06-17T23:57:59.861Z,6.50
